sensor_id;sensor_type;location;lat;lon;timestamp;pressure;altitude;pressure_sealevel;temperature;humidity
63568;BME280;49715;42.386;20.434;2022-10-15T00:01:57;97533.84;;;10.22;77.71
63568;BME280;49715;42.386;20.434;2022-10-15T00:04:23;97539.28;;;10.20;77.98
63568;BME280;49715;42.386;20.434;2022-10-15T00:06:49;97534.97;;;10.19;77.90
63568;BME280;49715;42.386;20.434;2022-10-15T00:09:16;97544.38;;;10.22;78.05
63568;BME280;49715;42.386;20.434;2022-10-15T00:11:42;97533.75;;;10.14;77.95
63568;BME280;49715;42.386;20.434;2022-10-15T00:14:09;97544.66;;;10.19;77.99
63568;BME280;49715;42.386;20.434;2022-10-15T00:16:35;97535.38;;;10.15;77.94
63568;BME280;49715;42.386;20.434;2022-10-15T00:19:02;97556.19;;;10.18;77.96
63568;BME280;49715;42.386;20.434;2022-10-15T00:21:28;97531.53;;;10.09;77.86
63568;BME280;49715;42.386;20.434;2022-10-15T00:23:55;97533.34;;;10.09;77.91
63568;BME280;49715;42.386;20.434;2022-10-15T00:26:24;97548.88;;;10.12;78.11
63568;BME280;49715;42.386;20.434;2022-10-15T00:28:53;97550.69;;;10.11;78.21
63568;BME280;49715;42.386;20.434;2022-10-15T00:31:23;97548.16;;;10.10;78.17
63568;BME280;49715;42.386;20.434;2022-10-15T00:33:55;97544.19;;;10.05;78.21
63568;BME280;49715;42.386;20.434;2022-10-15T00:36:25;97543.22;;;10.06;78.10
63568;BME280;49715;42.386;20.434;2022-10-15T00:38:52;97541.84;;;10.02;78.12
63568;BME280;49715;42.386;20.434;2022-10-15T00:41:21;97546.28;;;10.02;78.47
63568;BME280;49715;42.386;20.434;2022-10-15T00:43:50;97540.59;;;9.97;78.17
63568;BME280;49715;42.386;20.434;2022-10-15T00:46:37;97533.25;;;10.00;78.40
63568;BME280;49715;42.386;20.434;2022-10-15T00:49:25;97534.38;;;9.98;78.17
63568;BME280;49715;42.386;20.434;2022-10-15T00:54:54;97542.81;;;10.01;77.97
63568;BME280;49715;42.386;20.434;2022-10-15T00:57:23;97527.56;;;9.95;77.96
63568;BME280;49715;42.386;20.434;2022-10-15T00:59:51;97536.72;;;10.01;77.87
63568;BME280;49715;42.386;20.434;2022-10-15T01:02:19;97537.16;;;9.96;77.70
63568;BME280;49715;42.386;20.434;2022-10-15T01:04:46;97535.78;;;9.92;78.10
63568;BME280;49715;42.386;20.434;2022-10-15T01:07:13;97545.91;;;9.87;77.73
63568;BME280;49715;42.386;20.434;2022-10-15T01:09:39;97526.81;;;9.75;77.61
63568;BME280;49715;42.386;20.434;2022-10-15T01:12:24;97528.91;;;9.72;77.68
63568;BME280;49715;42.386;20.434;2022-10-15T01:34:43;97539.47;;;9.52;77.97
63568;BME280;49715;42.386;20.434;2022-10-15T01:40:12;97537.78;;;9.51;77.75
63568;BME280;49715;42.386;20.434;2022-10-15T01:42:59;97537.78;;;9.51;77.70
63568;BME280;49715;42.386;20.434;2022-10-15T01:45:39;97524.78;;;9.50;77.37
63568;BME280;49715;42.386;20.434;2022-10-15T01:48:16;97535.72;;;9.55;77.16
63568;BME280;49715;42.386;20.434;2022-10-15T01:50:48;97530.75;;;9.52;77.20
63568;BME280;49715;42.386;20.434;2022-10-15T01:53:22;97530.88;;;9.50;77.33
63568;BME280;49715;42.386;20.434;2022-10-15T01:55:58;97526.75;;;9.48;76.95
63568;BME280;49715;42.386;20.434;2022-10-15T01:58:26;97530.47;;;9.45;77.07
63568;BME280;49715;42.386;20.434;2022-10-15T02:00:56;97536.44;;;9.47;76.92
63568;BME280;49715;42.386;20.434;2022-10-15T02:03:24;97538.25;;;9.47;77.26
63568;BME280;49715;42.386;20.434;2022-10-15T02:05:56;97531.19;;;9.38;77.21
63568;BME280;49715;42.386;20.434;2022-10-15T02:11:19;97538.94;;;9.39;77.18
63568;BME280;49715;42.386;20.434;2022-10-15T02:16:42;97538.25;;;9.27;77.26
63568;BME280;49715;42.386;20.434;2022-10-15T02:19:18;97539.63;;;9.22;77.47
63568;BME280;49715;42.386;20.434;2022-10-15T02:21:51;97534.25;;;9.14;77.59
63568;BME280;49715;42.386;20.434;2022-10-15T02:24:22;97538.38;;;9.16;77.46
63568;BME280;49715;42.386;20.434;2022-10-15T02:26:52;97535.06;;;9.14;77.75
63568;BME280;49715;42.386;20.434;2022-10-15T02:29:23;97528.59;;;9.09;77.75
63568;BME280;49715;42.386;20.434;2022-10-15T02:31:53;97526.38;;;9.04;77.69
63568;BME280;49715;42.386;20.434;2022-10-15T02:34:25;97536.72;;;9.06;77.73
63568;BME280;49715;42.386;20.434;2022-10-15T02:36:54;97537.00;;;9.02;77.86
63568;BME280;49715;42.386;20.434;2022-10-15T02:39:23;97530.38;;;8.98;77.84
63568;BME280;49715;42.386;20.434;2022-10-15T02:41:51;97535.50;;;9.00;78.00
63568;BME280;49715;42.386;20.434;2022-10-15T02:44:19;97533.00;;;8.98;77.96
63568;BME280;49715;42.386;20.434;2022-10-15T02:46:46;97536.06;;;8.94;78.12
63568;BME280;49715;42.386;20.434;2022-10-15T02:49:14;97536.06;;;8.94;77.95
63568;BME280;49715;42.386;20.434;2022-10-15T02:51:41;97540.59;;;8.92;77.95
63568;BME280;49715;42.386;20.434;2022-10-15T02:54:07;97533.13;;;8.87;78.06
63568;BME280;49715;42.386;20.434;2022-10-15T02:56:34;97532.44;;;8.85;78.38
63568;BME280;49715;42.386;20.434;2022-10-15T02:59:05;97538.25;;;8.89;78.21
63568;BME280;49715;42.386;20.434;2022-10-15T03:01:31;97536.72;;;8.86;78.06
63568;BME280;49715;42.386;20.434;2022-10-15T03:03:58;97535.75;;;8.87;78.02
63568;BME280;49715;42.386;20.434;2022-10-15T03:06:25;97544.06;;;8.92;78.06
63568;BME280;49715;42.386;20.434;2022-10-15T03:08:51;97534.66;;;8.90;77.72
63568;BME280;49715;42.386;20.434;2022-10-15T03:11:18;97544.19;;;8.91;77.73
63568;BME280;49715;42.386;20.434;2022-10-15T03:13:46;97545.31;;;8.88;77.65
63568;BME280;49715;42.386;20.434;2022-10-15T03:16:13;97533.53;;;8.83;77.43
63568;BME280;49715;42.386;20.434;2022-10-15T03:18:42;97544.03;;;8.83;77.42
63568;BME280;49715;42.386;20.434;2022-10-15T03:21:10;97539.19;;;8.78;77.27
63568;BME280;49715;42.386;20.434;2022-10-15T03:23:37;97551.09;;;8.82;77.57
63568;BME280;49715;42.386;20.434;2022-10-15T03:26:12;97553.19;;;8.79;77.59
63568;BME280;49715;42.386;20.434;2022-10-15T03:28:39;97552.06;;;8.71;77.49
63568;BME280;49715;42.386;20.434;2022-10-15T03:31:06;97554.41;;;8.65;77.65
63568;BME280;49715;42.386;20.434;2022-10-15T03:33:32;97571.56;;;8.69;77.59
63568;BME280;49715;42.386;20.434;2022-10-15T03:35:59;97558.00;;;8.64;77.62
63568;BME280;49715;42.386;20.434;2022-10-15T03:38:26;97559.78;;;8.63;77.91
63568;BME280;49715;42.386;20.434;2022-10-15T03:40:53;97554.94;;;8.59;77.93
63568;BME280;49715;42.386;20.434;2022-10-15T03:43:32;97560.31;;;8.57;77.72
63568;BME280;49715;42.386;20.434;2022-10-15T03:46:02;97558.53;;;8.58;77.69
63568;BME280;49715;42.386;20.434;2022-10-15T03:48:29;97559.22;;;8.50;77.74
63568;BME280;49715;42.386;20.434;2022-10-15T03:50:55;97566.13;;;8.51;77.82
63568;BME280;49715;42.386;20.434;2022-10-15T03:53:22;97566.66;;;8.45;77.68
63568;BME280;49715;42.386;20.434;2022-10-15T03:55:49;97568.00;;;8.39;77.58
63568;BME280;49715;42.386;20.434;2022-10-15T03:58:16;97568.81;;;8.30;77.74
63568;BME280;49715;42.386;20.434;2022-10-15T04:00:49;97579.16;;;8.32;77.74
63568;BME280;49715;42.386;20.434;2022-10-15T04:03:16;97573.47;;;8.26;77.86
63568;BME280;49715;42.386;20.434;2022-10-15T04:05:49;97563.38;;;8.22;78.06
63568;BME280;49715;42.386;20.434;2022-10-15T04:08:16;97564.44;;;8.19;77.89
63568;BME280;49715;42.386;20.434;2022-10-15T04:10:43;97565.41;;;8.18;77.89
63568;BME280;49715;42.386;20.434;2022-10-15T04:13:09;97565.81;;;8.14;77.94
63568;BME280;49715;42.386;20.434;2022-10-15T04:15:39;97566.22;;;8.09;77.87
63568;BME280;49715;42.386;20.434;2022-10-15T04:18:09;97570.53;;;8.10;77.77
63568;BME280;49715;42.386;20.434;2022-10-15T04:20:37;97578.78;;;8.06;77.70
63568;BME280;49715;42.386;20.434;2022-10-15T04:23:16;97562.41;;;7.92;77.85
63568;BME280;49715;42.386;20.434;2022-10-15T04:26:02;97576.13;;;7.96;77.98
63568;BME280;49715;42.386;20.434;2022-10-15T04:28:28;97579.00;;;7.93;77.84
63568;BME280;49715;42.386;20.434;2022-10-15T04:30:59;97580.06;;;7.90;77.95
63568;BME280;49715;42.386;20.434;2022-10-15T04:33:26;97584.03;;;7.85;77.97
63568;BME280;49715;42.386;20.434;2022-10-15T04:36:07;97588.03;;;7.79;78.05
63568;BME280;49715;42.386;20.434;2022-10-15T04:38:53;97588.53;;;7.73;78.48
63568;BME280;49715;42.386;20.434;2022-10-15T04:41:34;97588.09;;;7.68;78.36
63568;BME280;49715;42.386;20.434;2022-10-15T04:44:04;97589.75;;;7.69;78.40
63568;BME280;49715;42.386;20.434;2022-10-15T04:46:32;97591.69;;;7.67;78.27
63568;BME280;49715;42.386;20.434;2022-10-15T04:49:03;97593.34;;;7.68;78.28
63568;BME280;49715;42.386;20.434;2022-10-15T04:51:30;97578.13;;;7.62;78.44
63568;BME280;49715;42.386;20.434;2022-10-15T04:54:12;97583.81;;;7.67;78.43
63568;BME280;49715;42.386;20.434;2022-10-15T04:56:54;97585.88;;;7.63;78.48
63568;BME280;49715;42.386;20.434;2022-10-15T04:59:20;97586.00;;;7.62;78.43
63568;BME280;49715;42.386;20.434;2022-10-15T05:02:16;97597.31;;;7.62;78.57
63568;BME280;49715;42.386;20.434;2022-10-15T05:04:44;97594.81;;;7.61;78.58
63568;BME280;49715;42.386;20.434;2022-10-15T05:07:11;97599.94;;;7.62;78.62
63568;BME280;49715;42.386;20.434;2022-10-15T05:09:40;97599.94;;;7.62;78.69
63568;BME280;49715;42.386;20.434;2022-10-15T05:12:06;97590.66;;;7.58;78.75
63568;BME280;49715;42.386;20.434;2022-10-15T05:14:34;97607.44;;;7.67;78.71
63568;BME280;49715;42.386;20.434;2022-10-15T05:17:23;97604.81;;;7.67;78.55
63568;BME280;49715;42.386;20.434;2022-10-15T05:19:49;97611.56;;;7.69;78.84
63568;BME280;49715;42.386;20.434;2022-10-15T05:22:20;97615.63;;;7.73;79.02
63568;BME280;49715;42.386;20.434;2022-10-15T05:24:51;97611.44;;;7.71;78.89
63568;BME280;49715;42.386;20.434;2022-10-15T05:27:43;97622.53;;;7.74;79.10
63568;BME280;49715;42.386;20.434;2022-10-15T05:30:10;97626.31;;;7.82;78.95
63568;BME280;49715;42.386;20.434;2022-10-15T05:32:45;97628.66;;;7.85;79.13
63568;BME280;49715;42.386;20.434;2022-10-15T05:35:16;97620.69;;;7.86;79.18
63568;BME280;49715;42.386;20.434;2022-10-15T05:37:52;97630.50;;;7.94;79.25
63568;BME280;49715;42.386;20.434;2022-10-15T05:40:18;97628.84;;;7.93;79.19
63568;BME280;49715;42.386;20.434;2022-10-15T05:42:50;97634.53;;;7.98;79.21
63568;BME280;49715;42.386;20.434;2022-10-15T05:45:18;97640.38;;;8.02;79.26
63568;BME280;49715;42.386;20.434;2022-10-15T05:47:45;97626.97;;;8.05;79.28
63568;BME280;49715;42.386;20.434;2022-10-15T05:50:15;97636.84;;;8.12;79.22
63568;BME280;49715;42.386;20.434;2022-10-15T05:52:45;97638.25;;;8.16;79.19
63568;BME280;49715;42.386;20.434;2022-10-15T05:55:26;97626.53;;;8.20;79.15
63568;BME280;49715;42.386;20.434;2022-10-15T05:57:52;97637.34;;;8.27;79.27
63568;BME280;49715;42.386;20.434;2022-10-15T06:00:19;97628.22;;;8.31;79.19
63568;BME280;49715;42.386;20.434;2022-10-15T06:02:51;97640.47;;;8.42;79.28
63568;BME280;49715;42.386;20.434;2022-10-15T06:05:20;97654.88;;;8.47;79.20
63568;BME280;49715;42.386;20.434;2022-10-15T06:07:46;97643.53;;;8.47;78.98
63568;BME280;49715;42.386;20.434;2022-10-15T06:10:13;97659.19;;;8.58;79.23
63568;BME280;49715;42.386;20.434;2022-10-15T06:12:39;97656.31;;;8.61;79.13
63568;BME280;49715;42.386;20.434;2022-10-15T06:15:07;97657.44;;;8.68;79.01
63568;BME280;49715;42.386;20.434;2022-10-15T06:17:33;97663.97;;;8.74;79.02
63568;BME280;49715;42.386;20.434;2022-10-15T06:20:00;97654.00;;;8.77;79.00
63568;BME280;49715;42.386;20.434;2022-10-15T06:22:29;97668.16;;;8.86;79.12
63568;BME280;49715;42.386;20.434;2022-10-15T06:24:56;97676.06;;;8.96;78.90
63568;BME280;49715;42.386;20.434;2022-10-15T06:27:24;97672.19;;;9.00;78.88
63568;BME280;49715;42.386;20.434;2022-10-15T06:29:50;97672.38;;;9.08;79.07
63568;BME280;49715;42.386;20.434;2022-10-15T06:32:17;97671.41;;;9.19;78.86
63568;BME280;49715;42.386;20.434;2022-10-15T06:34:43;97669.34;;;9.22;78.87
63568;BME280;49715;42.386;20.434;2022-10-15T06:37:10;97675.16;;;9.36;78.57
63568;BME280;49715;42.386;20.434;2022-10-15T06:39:37;97668.41;;;9.43;78.82
63568;BME280;49715;42.386;20.434;2022-10-15T06:42:03;97669.34;;;9.51;78.76
63568;BME280;49715;42.386;20.434;2022-10-15T06:44:39;97668.25;;;9.64;78.66
63568;BME280;49715;42.386;20.434;2022-10-15T06:47:06;97671.03;;;9.72;78.51
63568;BME280;49715;42.386;20.434;2022-10-15T06:49:32;97661.88;;;9.76;78.50
63568;BME280;49715;42.386;20.434;2022-10-15T06:51:59;97671.16;;;9.90;77.88
63568;BME280;49715;42.386;20.434;2022-10-15T06:54:25;97667.00;;;9.97;78.20
63568;BME280;49715;42.386;20.434;2022-10-15T06:56:51;97662.81;;;10.04;78.14
63568;BME280;49715;42.386;20.434;2022-10-15T06:59:18;97668.22;;;10.12;77.96
63568;BME280;49715;42.386;20.434;2022-10-15T07:01:44;97666.81;;;10.18;77.71
63568;BME280;49715;42.386;20.434;2022-10-15T07:04:11;97666.97;;;10.26;77.62
63568;BME280;49715;42.386;20.434;2022-10-15T07:06:37;97673.31;;;10.33;77.49
63568;BME280;49715;42.386;20.434;2022-10-15T07:09:04;97673.44;;;10.41;77.44
63568;BME280;49715;42.386;20.434;2022-10-15T07:11:30;97680.09;;;10.45;76.91
63568;BME280;49715;42.386;20.434;2022-10-15T07:13:57;97689.50;;;10.48;77.01
63568;BME280;49715;42.386;20.434;2022-10-15T07:16:23;97685.19;;;10.56;76.75
63568;BME280;49715;42.386;20.434;2022-10-15T07:18:49;97677.81;;;10.60;76.68
63568;BME280;49715;42.386;20.434;2022-10-15T07:21:16;97685.28;;;10.65;76.42
63568;BME280;49715;42.386;20.434;2022-10-15T07:23:42;97688.00;;;10.73;76.46
63568;BME280;49715;42.386;20.434;2022-10-15T07:26:09;97680.81;;;10.75;76.22
63568;BME280;49715;42.386;20.434;2022-10-15T07:28:35;97687.53;;;10.87;76.17
63568;BME280;49715;42.386;20.434;2022-10-15T07:31:05;97688.75;;;10.93;76.17
63568;BME280;49715;42.386;20.434;2022-10-15T07:33:32;97688.88;;;11.01;76.08
63568;BME280;49715;42.386;20.434;2022-10-15T07:36:06;97696.19;;;11.07;76.03
63568;BME280;49715;42.386;20.434;2022-10-15T07:38:34;97698.09;;;11.15;75.88
63568;BME280;49715;42.386;20.434;2022-10-15T07:41:02;97701.13;;;11.20;75.74
63568;BME280;49715;42.386;20.434;2022-10-15T07:43:32;97688.31;;;11.25;75.78
63568;BME280;49715;42.386;20.434;2022-10-15T07:45:59;97688.41;;;11.33;75.71
63568;BME280;49715;42.386;20.434;2022-10-15T07:48:26;97691.28;;;11.40;75.39
63568;BME280;49715;42.386;20.434;2022-10-15T07:50:54;97685.00;;;11.41;75.40
63568;BME280;49715;42.386;20.434;2022-10-15T07:53:21;97693.94;;;11.57;75.15
63568;BME280;49715;42.386;20.434;2022-10-15T07:55:52;97700.81;;;11.68;74.84
63568;BME280;49715;42.386;20.434;2022-10-15T07:58:19;97698.25;;;11.76;75.01
63568;BME280;49715;42.386;20.434;2022-10-15T08:00:45;97693.03;;;11.84;74.50
63568;BME280;49715;42.386;20.434;2022-10-15T08:03:12;97690.66;;;11.91;74.81
63568;BME280;49715;42.386;20.434;2022-10-15T08:05:38;97695.97;;;11.99;74.42
63568;BME280;49715;42.386;20.434;2022-10-15T08:08:04;97681.47;;;12.03;74.10
63568;BME280;49715;42.386;20.434;2022-10-15T08:10:31;97681.56;;;12.11;73.83
63568;BME280;49715;42.386;20.434;2022-10-15T08:12:57;97683.13;;;12.22;73.75
63568;BME280;49715;42.386;20.434;2022-10-15T08:15:24;97688.75;;;12.27;73.56
63568;BME280;49715;42.386;20.434;2022-10-15T08:17:50;97676.56;;;12.34;73.49
63568;BME280;49715;42.386;20.434;2022-10-15T08:20:17;97689.56;;;12.46;73.06
63568;BME280;49715;42.386;20.434;2022-10-15T08:22:44;97689.28;;;12.57;72.86
63568;BME280;49715;42.386;20.434;2022-10-15T08:25:11;97690.16;;;12.66;72.81
63568;BME280;49715;42.386;20.434;2022-10-15T08:27:37;97676.00;;;12.75;72.76
63568;BME280;49715;42.386;20.434;2022-10-15T08:30:05;97680.00;;;12.87;72.55
63568;BME280;49715;42.386;20.434;2022-10-15T08:32:31;97678.75;;;12.99;72.51
63568;BME280;49715;42.386;20.434;2022-10-15T08:34:59;97670.34;;;13.12;72.29
63568;BME280;49715;42.386;20.434;2022-10-15T08:37:30;97689.44;;;13.24;71.86
63568;BME280;49715;42.386;20.434;2022-10-15T08:39:57;97683.34;;;13.31;71.52
63568;BME280;49715;42.386;20.434;2022-10-15T08:42:37;97671.59;;;13.34;71.25
63568;BME280;49715;42.386;20.434;2022-10-15T08:45:11;97674.75;;;13.46;71.44
63568;BME280;49715;42.386;20.434;2022-10-15T08:47:44;97670.31;;;13.54;71.31
63568;BME280;49715;42.386;20.434;2022-10-15T08:52:47;97661.06;;;13.75;70.79
63568;BME280;49715;42.386;20.434;2022-10-15T08:55:17;97654.13;;;13.82;70.85
63568;BME280;49715;42.386;20.434;2022-10-15T09:00:30;97665.03;;;14.03;70.23
63568;BME280;49715;42.386;20.434;2022-10-15T09:03:07;97668.16;;;14.15;69.98
63568;BME280;49715;42.386;20.434;2022-10-15T09:12:13;97663.50;;;14.41;68.78
63568;BME280;49715;42.386;20.434;2022-10-15T09:14:43;97663.81;;;14.47;67.92
63568;BME280;49715;42.386;20.434;2022-10-15T09:17:24;97672.94;;;14.60;69.07
63568;BME280;49715;42.386;20.434;2022-10-15T09:20:02;97659.81;;;14.67;69.00
63568;BME280;49715;42.386;20.434;2022-10-15T09:22:31;97666.44;;;14.79;69.17
63568;BME280;49715;42.386;20.434;2022-10-15T09:25:13;97675.16;;;14.88;68.38
63568;BME280;49715;42.386;20.434;2022-10-15T09:27:39;97672.00;;;14.92;68.23
63568;BME280;49715;42.386;20.434;2022-10-15T09:30:29;97667.50;;;14.93;67.86
63568;BME280;49715;42.386;20.434;2022-10-15T09:35:52;97663.97;;;15.09;67.80
63568;BME280;49715;42.386;20.434;2022-10-15T09:43:35;97651.81;;;15.23;67.44
63568;BME280;49715;42.386;20.434;2022-10-15T09:46:03;97657.06;;;15.31;67.39
63568;BME280;49715;42.386;20.434;2022-10-15T09:48:34;97649.03;;;15.39;67.35
63568;BME280;49715;42.386;20.434;2022-10-15T09:51:09;97647.63;;;15.51;66.94
63568;BME280;49715;42.386;20.434;2022-10-15T09:56:29;97661.97;;;15.73;66.75
63568;BME280;49715;42.386;20.434;2022-10-15T09:58:58;97649.78;;;15.79;66.64
63568;BME280;49715;42.386;20.434;2022-10-15T10:01:25;97665.22;;;15.83;64.74
63568;BME280;49715;42.386;20.434;2022-10-15T10:04:07;97642.69;;;15.94;66.51
63568;BME280;49715;42.386;20.434;2022-10-15T10:06:52;97651.38;;;16.11;65.90
63568;BME280;49715;42.386;20.434;2022-10-15T10:09:22;97656.06;;;16.23;65.67
63568;BME280;49715;42.386;20.434;2022-10-15T10:14:25;97648.09;;;16.38;64.87
63568;BME280;49715;42.386;20.434;2022-10-15T10:17:18;97645.00;;;16.50;64.47
63568;BME280;49715;42.386;20.434;2022-10-15T10:20:11;97649.88;;;16.61;63.95
63568;BME280;49715;42.386;20.434;2022-10-15T10:22:47;97640.25;;;16.75;63.72
63568;BME280;49715;42.386;20.434;2022-10-15T10:27:54;97643.53;;;16.91;63.48
63568;BME280;49715;42.386;20.434;2022-10-15T10:30:22;97638.75;;;17.02;63.52
63568;BME280;49715;42.386;20.434;2022-10-15T10:32:55;97631.28;;;17.12;63.26
63568;BME280;49715;42.386;20.434;2022-10-15T10:35:25;97635.41;;;17.29;62.77
63568;BME280;49715;42.386;20.434;2022-10-15T10:37:54;97626.91;;;17.40;62.87
63568;BME280;49715;42.386;20.434;2022-10-15T10:40:26;97624.38;;;17.54;62.65
63568;BME280;49715;42.386;20.434;2022-10-15T10:45:58;97627.06;;;17.75;61.72
63568;BME280;49715;42.386;20.434;2022-10-15T10:48:42;97616.34;;;17.90;61.34
63568;BME280;49715;42.386;20.434;2022-10-15T10:51:24;97612.97;;;18.02;61.21
63568;BME280;49715;42.386;20.434;2022-10-15T10:54:00;97606.50;;;18.18;61.26
63568;BME280;49715;42.386;20.434;2022-10-15T10:56:34;97609.47;;;18.30;60.87
63568;BME280;49715;42.386;20.434;2022-10-15T10:59:19;97607.44;;;18.32;60.81
63568;BME280;49715;42.386;20.434;2022-10-15T11:01:48;97604.19;;;18.37;58.62
63568;BME280;49715;42.386;20.434;2022-10-15T11:04:28;97602.38;;;18.44;60.52
63568;BME280;49715;42.386;20.434;2022-10-15T11:07:22;97604.84;;;18.45;59.50
63568;BME280;49715;42.386;20.434;2022-10-15T11:24:11;97589.72;;;19.68;58.61
63568;BME280;49715;42.386;20.434;2022-10-15T11:27:15;97581.72;;;19.82;56.70
63568;BME280;49715;42.386;20.434;2022-10-15T11:32:37;97582.72;;;19.61;57.29
63568;BME280;49715;42.386;20.434;2022-10-15T11:41:21;97565.38;;;19.37;55.96
63568;BME280;49715;42.386;20.434;2022-10-15T11:47:04;97561.09;;;19.55;56.55
63568;BME280;49715;42.386;20.434;2022-10-15T11:49:58;97568.94;;;19.70;54.89
63568;BME280;49715;42.386;20.434;2022-10-15T11:55:24;97560.09;;;19.70;55.01
63568;BME280;49715;42.386;20.434;2022-10-15T11:58:00;97558.06;;;19.92;55.50
63568;BME280;49715;42.386;20.434;2022-10-15T12:00:42;97553.28;;;20.14;54.69
63568;BME280;49715;42.386;20.434;2022-10-15T12:05:49;97547.19;;;20.71;54.50
63568;BME280;49715;42.386;20.434;2022-10-15T12:08:17;97549.94;;;21.03;54.03
63568;BME280;49715;42.386;20.434;2022-10-15T12:11:10;97547.53;;;21.26;53.16
63568;BME280;49715;42.386;20.434;2022-10-15T12:13:44;97537.38;;;21.42;52.96
63568;BME280;49715;42.386;20.434;2022-10-15T12:16:39;97532.00;;;21.42;49.95
63568;BME280;49715;42.386;20.434;2022-10-15T12:19:18;97536.53;;;21.41;51.78
63568;BME280;49715;42.386;20.434;2022-10-15T12:29:50;97521.41;;;21.78;51.29
63568;BME280;49715;42.386;20.434;2022-10-15T12:32:43;97523.44;;;21.83;50.58
63568;BME280;49715;42.386;20.434;2022-10-15T12:37:42;97525.34;;;22.26;50.58
63568;BME280;49715;42.386;20.434;2022-10-15T12:42:55;97530.56;;;22.57;48.33
63568;BME280;49715;42.386;20.434;2022-10-15T12:46:01;97526.38;;;22.61;49.54
63568;BME280;49715;42.386;20.434;2022-10-15T12:48:28;97516.53;;;22.55;49.30
63568;BME280;49715;42.386;20.434;2022-10-15T12:53:50;97518.41;;;22.55;48.67
63568;BME280;49715;42.386;20.434;2022-10-15T12:56:23;97522.63;;;22.62;48.45
63568;BME280;49715;42.386;20.434;2022-10-15T12:58:50;97526.00;;;22.76;48.33
63568;BME280;49715;42.386;20.434;2022-10-15T13:08:54;97517.88;;;23.13;46.63
63568;BME280;49715;42.386;20.434;2022-10-15T13:11:27;97516.28;;;23.24;47.10
63568;BME280;49715;42.386;20.434;2022-10-15T13:14:02;97509.31;;;23.34;47.03
63568;BME280;49715;42.386;20.434;2022-10-15T13:16:34;97512.25;;;23.45;46.58
63568;BME280;49715;42.386;20.434;2022-10-15T13:19:02;97513.22;;;23.62;46.45
63568;BME280;49715;42.386;20.434;2022-10-15T13:21:47;97510.34;;;23.75;44.89
63568;BME280;49715;42.386;20.434;2022-10-15T13:24:24;97504.75;;;23.77;45.61
63568;BME280;49715;42.386;20.434;2022-10-15T13:26:52;97515.75;;;23.87;46.16
63568;BME280;49715;42.386;20.434;2022-10-15T13:29:22;97514.56;;;23.95;45.94
63568;BME280;49715;42.386;20.434;2022-10-15T13:31:55;97515.59;;;24.05;45.30
63568;BME280;49715;42.386;20.434;2022-10-15T13:34:32;97511.03;;;24.06;45.55
63568;BME280;49715;42.386;20.434;2022-10-15T13:37:01;97503.44;;;24.03;45.67
63568;BME280;49715;42.386;20.434;2022-10-15T13:39:32;97508.59;;;24.04;45.64
63568;BME280;49715;42.386;20.434;2022-10-15T13:44:38;97507.91;;;23.97;45.10
63568;BME280;49715;42.386;20.434;2022-10-15T13:47:28;97507.66;;;23.87;43.04
63568;BME280;49715;42.386;20.434;2022-10-15T13:52:57;97493.13;;;23.76;44.59
63568;BME280;49715;42.386;20.434;2022-10-15T13:55:29;97493.97;;;23.77;44.58
63568;BME280;49715;42.386;20.434;2022-10-15T13:58:05;97494.06;;;23.70;44.15
63568;BME280;49715;42.386;20.434;2022-10-15T14:00:40;97500.88;;;23.73;44.54
63568;BME280;49715;42.386;20.434;2022-10-15T14:03:16;97508.34;;;23.71;43.28
63568;BME280;49715;42.386;20.434;2022-10-15T14:05:45;97505.31;;;23.79;44.30
63568;BME280;49715;42.386;20.434;2022-10-15T14:08:20;97509.19;;;23.83;43.56
63568;BME280;49715;42.386;20.434;2022-10-15T14:10:48;97507.44;;;23.88;43.97
63568;BME280;49715;42.386;20.434;2022-10-15T14:13:17;97512.25;;;23.86;44.08
63568;BME280;49715;42.386;20.434;2022-10-15T14:16:11;97512.81;;;23.77;41.27
63568;BME280;49715;42.386;20.434;2022-10-15T14:18:43;97515.16;;;23.73;44.41
63568;BME280;49715;42.386;20.434;2022-10-15T14:21:12;97514.53;;;23.71;44.10
63568;BME280;49715;42.386;20.434;2022-10-15T14:23:40;97513.72;;;23.71;44.07
63568;BME280;49715;42.386;20.434;2022-10-15T14:26:08;97514.19;;;23.68;43.65
63568;BME280;49715;42.386;20.434;2022-10-15T14:28:37;97508.53;;;23.57;43.71
63568;BME280;49715;42.386;20.434;2022-10-15T14:31:05;97521.63;;;23.54;43.50
63568;BME280;49715;42.386;20.434;2022-10-15T14:33:41;97520.31;;;23.45;42.95
63568;BME280;49715;42.386;20.434;2022-10-15T14:36:10;97521.00;;;23.28;42.29
63568;BME280;49715;42.386;20.434;2022-10-15T14:38:39;97527.06;;;23.35;44.46
63568;BME280;49715;42.386;20.434;2022-10-15T14:41:30;97508.22;;;23.24;43.01
63568;BME280;49715;42.386;20.434;2022-10-15T14:44:04;97516.44;;;23.29;44.44
63568;BME280;49715;42.386;20.434;2022-10-15T14:46:36;97519.66;;;23.19;44.45
63568;BME280;49715;42.386;20.434;2022-10-15T14:49:17;97505.47;;;23.00;43.89
63568;BME280;49715;42.386;20.434;2022-10-15T14:51:44;97498.88;;;22.78;44.96
63568;BME280;49715;42.386;20.434;2022-10-15T14:54:20;97509.34;;;22.49;44.38
63568;BME280;49715;42.386;20.434;2022-10-15T14:56:49;97524.13;;;22.22;45.05
63568;BME280;49715;42.386;20.434;2022-10-15T14:59:18;97509.13;;;21.89;44.95
63568;BME280;49715;42.386;20.434;2022-10-15T15:01:55;97504.00;;;21.63;44.66
63568;BME280;49715;42.386;20.434;2022-10-15T15:04:37;97500.72;;;21.29;44.58
63568;BME280;49715;42.386;20.434;2022-10-15T15:07:13;97496.50;;;21.08;45.05
63568;BME280;49715;42.386;20.434;2022-10-15T15:09:40;97497.28;;;20.83;45.63
63568;BME280;49715;42.386;20.434;2022-10-15T15:12:18;97499.25;;;20.56;45.89
63568;BME280;49715;42.386;20.434;2022-10-15T15:14:46;97493.94;;;20.37;46.40
63568;BME280;49715;42.386;20.434;2022-10-15T15:17:15;97506.13;;;20.19;46.30
63568;BME280;49715;42.386;20.434;2022-10-15T15:19:42;97509.06;;;19.98;46.86
63568;BME280;49715;42.386;20.434;2022-10-15T15:22:15;97521.03;;;19.82;47.16